sensor_id;sensor_type;location;lat;lon;timestamp;temperature;humidity
36498;DHT22;22513;51.222;6.480;2022-12-20T00:02:19;11.90;99.90
36498;DHT22;22513;51.222;6.480;2022-12-20T00:04:45;12.00;99.90
36498;DHT22;22513;51.222;6.480;2022-12-20T00:07:10;11.90;99.90
36498;DHT22;22513;51.222;6.480;2022-12-20T00:09:36;11.90;99.90
36498;DHT22;22513;51.222;6.480;2022-12-20T00:12:02;11.90;99.90
36498;DHT22;22513;51.222;6.480;2022-12-20T00:14:27;11.90;99.90
36498;DHT22;22513;51.222;6.480;2022-12-20T00:16:53;12.00;99.90
36498;DHT22;22513;51.222;6.480;2022-12-20T00:19:19;11.90;99.90
36498;DHT22;22513;51.222;6.480;2022-12-20T00:21:44;11.90;99.90
36498;DHT22;22513;51.222;6.480;2022-12-20T00:24:10;11.90;99.90
36498;DHT22;22513;51.222;6.480;2022-12-20T00:26:36;11.90;99.90
36498;DHT22;22513;51.222;6.480;2022-12-20T00:29:03;11.90;99.90
36498;DHT22;22513;51.222;6.480;2022-12-20T00:31:29;11.90;99.90
36498;DHT22;22513;51.222;6.480;2022-12-20T00:33:56;11.90;99.90
36498;DHT22;22513;51.222;6.480;2022-12-20T00:36:24;11.90;99.90
36498;DHT22;22513;51.222;6.480;2022-12-20T00:38:52;11.90;99.90
36498;DHT22;22513;51.222;6.480;2022-12-20T00:41:20;11.90;99.90
36498;DHT22;22513;51.222;6.480;2022-12-20T00:43:47;12.00;99.90
36498;DHT22;22513;51.222;6.480;2022-12-20T00:46:14;11.90;99.90
36498;DHT22;22513;51.222;6.480;2022-12-20T00:48:41;11.90;99.90
36498;DHT22;22513;51.222;6.480;2022-12-20T00:51:19;11.90;99.90
36498;DHT22;22513;51.222;6.480;2022-12-20T00:53:45;11.90;99.90
36498;DHT22;22513;51.222;6.480;2022-12-20T00:56:12;12.00;99.90
36498;DHT22;22513;51.222;6.480;2022-12-20T00:58:39;12.00;99.90
36498;DHT22;22513;51.222;6.480;2022-12-20T01:01:06;12.00;99.90
36498;DHT22;22513;51.222;6.480;2022-12-20T01:03:38;12.00;99.90
36498;DHT22;22513;51.222;6.480;2022-12-20T01:06:04;12.00;99.90
36498;DHT22;22513;51.222;6.480;2022-12-20T01:08:30;12.10;99.90
36498;DHT22;22513;51.222;6.480;2022-12-20T01:11:02;12.10;99.90
36498;DHT22;22513;51.222;6.480;2022-12-20T01:13:28;12.10;99.90
36498;DHT22;22513;51.222;6.480;2022-12-20T01:15:54;12.10;99.90
36498;DHT22;22513;51.222;6.480;2022-12-20T01:18:19;12.10;99.90
36498;DHT22;22513;51.222;6.480;2022-12-20T01:20:45;12.00;99.90
36498;DHT22;22513;51.222;6.480;2022-12-20T01:23:11;12.00;99.90
36498;DHT22;22513;51.222;6.480;2022-12-20T01:25:36;12.10;99.90
36498;DHT22;22513;51.222;6.480;2022-12-20T01:28:02;12.10;99.90
36498;DHT22;22513;51.222;6.480;2022-12-20T01:30:27;12.10;99.90
36498;DHT22;22513;51.222;6.480;2022-12-20T01:32:53;12.10;99.90
36498;DHT22;22513;51.222;6.480;2022-12-20T01:35:19;12.10;99.90
36498;DHT22;22513;51.222;6.480;2022-12-20T01:37:44;12.10;99.90
36498;DHT22;22513;51.222;6.480;2022-12-20T01:40:10;12.10;99.90
36498;DHT22;22513;51.222;6.480;2022-12-20T01:42:36;12.10;99.90
36498;DHT22;22513;51.222;6.480;2022-12-20T01:45:08;12.10;99.90
36498;DHT22;22513;51.222;6.480;2022-12-20T01:47:37;12.00;99.90
36498;DHT22;22513;51.222;6.480;2022-12-20T01:50:04;12.10;99.90
36498;DHT22;22513;51.222;6.480;2022-12-20T01:52:34;12.00;99.90
36498;DHT22;22513;51.222;6.480;2022-12-20T01:55:24;12.10;99.90
36498;DHT22;22513;51.222;6.480;2022-12-20T01:58:11;12.00;99.90
36498;DHT22;22513;51.222;6.480;2022-12-20T02:00:37;12.00;99.90
36498;DHT22;22513;51.222;6.480;2022-12-20T02:03:06;12.00;99.90
36498;DHT22;22513;51.222;6.480;2022-12-20T02:05:38;12.00;99.90
36498;DHT22;22513;51.222;6.480;2022-12-20T02:08:05;11.90;99.90
36498;DHT22;22513;51.222;6.480;2022-12-20T02:13:19;11.80;99.90
36498;DHT22;22513;51.222;6.480;2022-12-20T02:15:53;11.90;99.90
36498;DHT22;22513;51.222;6.480;2022-12-20T02:18:35;11.80;99.90
36498;DHT22;22513;51.222;6.480;2022-12-20T02:21:22;11.80;99.90
36498;DHT22;22513;51.222;6.480;2022-12-20T02:32:29;11.80;99.90
36498;DHT22;22513;51.222;6.480;2022-12-20T02:34:55;11.80;99.90
36498;DHT22;22513;51.222;6.480;2022-12-20T02:37:21;11.80;99.90
36498;DHT22;22513;51.222;6.480;2022-12-20T02:39:47;11.80;99.90
36498;DHT22;22513;51.222;6.480;2022-12-20T02:42:16;11.70;99.90
36498;DHT22;22513;51.222;6.480;2022-12-20T02:44:51;11.70;99.90
36498;DHT22;22513;51.222;6.480;2022-12-20T02:47:59;11.70;99.90
36498;DHT22;22513;51.222;6.480;2022-12-20T02:52:56;11.70;99.90
36498;DHT22;22513;51.222;6.480;2022-12-20T02:55:45;11.60;99.90
36498;DHT22;22513;51.222;6.480;2022-12-20T02:58:17;11.50;99.90
36498;DHT22;22513;51.222;6.480;2022-12-20T03:00:47;11.50;99.90
36498;DHT22;22513;51.222;6.480;2022-12-20T03:03:14;11.40;99.90
36498;DHT22;22513;51.222;6.480;2022-12-20T03:05:54;11.40;99.90
36498;DHT22;22513;51.222;6.480;2022-12-20T03:08:22;11.30;99.90
36498;DHT22;22513;51.222;6.480;2022-12-20T03:10:48;11.30;99.90
36498;DHT22;22513;51.222;6.480;2022-12-20T03:13:14;11.20;99.90
36498;DHT22;22513;51.222;6.480;2022-12-20T03:15:40;11.20;99.90
36498;DHT22;22513;51.222;6.480;2022-12-20T03:18:06;11.20;99.90
36498;DHT22;22513;51.222;6.480;2022-12-20T03:20:32;11.10;99.90
36498;DHT22;22513;51.222;6.480;2022-12-20T03:22:58;11.10;99.90
36498;DHT22;22513;51.222;6.480;2022-12-20T03:25:24;11.10;99.90
36498;DHT22;22513;51.222;6.480;2022-12-20T03:27:49;11.10;99.90
36498;DHT22;22513;51.222;6.480;2022-12-20T03:30:15;11.10;99.90
36498;DHT22;22513;51.222;6.480;2022-12-20T03:32:41;11.00;99.90
36498;DHT22;22513;51.222;6.480;2022-12-20T03:35:07;11.00;99.90
36498;DHT22;22513;51.222;6.480;2022-12-20T03:37:33;11.00;99.90
36498;DHT22;22513;51.222;6.480;2022-12-20T03:39:58;10.90;99.90
36498;DHT22;22513;51.222;6.480;2022-12-20T03:42:24;10.90;99.90
36498;DHT22;22513;51.222;6.480;2022-12-20T03:44:49;10.90;99.90
36498;DHT22;22513;51.222;6.480;2022-12-20T03:47:15;10.90;99.90
36498;DHT22;22513;51.222;6.480;2022-12-20T03:49:41;10.80;99.90
36498;DHT22;22513;51.222;6.480;2022-12-20T03:52:07;10.80;99.90
36498;DHT22;22513;51.222;6.480;2022-12-20T03:54:33;10.80;99.90
36498;DHT22;22513;51.222;6.480;2022-12-20T03:56:59;10.70;99.90
36498;DHT22;22513;51.222;6.480;2022-12-20T03:59:24;10.70;99.90
36498;DHT22;22513;51.222;6.480;2022-12-20T04:01:50;10.70;99.90
36498;DHT22;22513;51.222;6.480;2022-12-20T04:04:16;10.60;99.90
36498;DHT22;22513;51.222;6.480;2022-12-20T04:06:42;10.60;99.90
36498;DHT22;22513;51.222;6.480;2022-12-20T04:09:08;10.50;99.90
36498;DHT22;22513;51.222;6.480;2022-12-20T04:11:33;10.50;99.90
36498;DHT22;22513;51.222;6.480;2022-12-20T04:13:59;10.50;99.90
36498;DHT22;22513;51.222;6.480;2022-12-20T04:16:27;10.40;99.90
36498;DHT22;22513;51.222;6.480;2022-12-20T04:18:52;10.40;99.90
36498;DHT22;22513;51.222;6.480;2022-12-20T04:21:23;10.20;99.90
36498;DHT22;22513;51.222;6.480;2022-12-20T04:23:49;10.10;99.90
36498;DHT22;22513;51.222;6.480;2022-12-20T04:26:14;10.00;99.90
36498;DHT22;22513;51.222;6.480;2022-12-20T04:28:40;9.80;99.90
36498;DHT22;22513;51.222;6.480;2022-12-20T04:31:06;9.70;99.90
36498;DHT22;22513;51.222;6.480;2022-12-20T04:33:31;9.60;99.90
36498;DHT22;22513;51.222;6.480;2022-12-20T04:35:57;9.50;99.90
36498;DHT22;22513;51.222;6.480;2022-12-20T04:38:23;9.50;99.90
36498;DHT22;22513;51.222;6.480;2022-12-20T04:40:53;9.50;99.90
36498;DHT22;22513;51.222;6.480;2022-12-20T04:43:20;9.40;99.90
36498;DHT22;22513;51.222;6.480;2022-12-20T04:45:46;9.30;99.90
36498;DHT22;22513;51.222;6.480;2022-12-20T04:48:13;9.30;99.90
36498;DHT22;22513;51.222;6.480;2022-12-20T04:50:38;9.30;99.90
36498;DHT22;22513;51.222;6.480;2022-12-20T04:53:04;9.20;99.90
36498;DHT22;22513;51.222;6.480;2022-12-20T04:55:49;9.20;99.90
36498;DHT22;22513;51.222;6.480;2022-12-20T04:58:14;9.10;99.90
36498;DHT22;22513;51.222;6.480;2022-12-20T05:00:41;9.10;99.90
36498;DHT22;22513;51.222;6.480;2022-12-20T05:03:06;9.00;99.90
36498;DHT22;22513;51.222;6.480;2022-12-20T05:05:32;9.00;99.90
36498;DHT22;22513;51.222;6.480;2022-12-20T05:07:58;8.90;99.90
36498;DHT22;22513;51.222;6.480;2022-12-20T05:10:24;8.90;99.90
36498;DHT22;22513;51.222;6.480;2022-12-20T05:12:49;8.90;99.90
36498;DHT22;22513;51.222;6.480;2022-12-20T05:15:15;8.90;99.90
36498;DHT22;22513;51.222;6.480;2022-12-20T05:17:40;8.90;99.90
36498;DHT22;22513;51.222;6.480;2022-12-20T05:20:06;8.90;99.90
36498;DHT22;22513;51.222;6.480;2022-12-20T05:22:32;8.90;99.90
36498;DHT22;22513;51.222;6.480;2022-12-20T05:25:17;8.90;99.90
36498;DHT22;22513;51.222;6.480;2022-12-20T05:28:01;8.90;99.90
36498;DHT22;22513;51.222;6.480;2022-12-20T05:30:27;8.90;99.90
36498;DHT22;22513;51.222;6.480;2022-12-20T05:32:53;8.90;99.90
36498;DHT22;22513;51.222;6.480;2022-12-20T05:35:18;9.00;99.90
36498;DHT22;22513;51.222;6.480;2022-12-20T05:37:44;8.90;99.90
36498;DHT22;22513;51.222;6.480;2022-12-20T05:40:10;9.00;99.90
36498;DHT22;22513;51.222;6.480;2022-12-20T05:42:36;9.00;99.90
36498;DHT22;22513;51.222;6.480;2022-12-20T05:45:03;9.10;99.90
36498;DHT22;22513;51.222;6.480;2022-12-20T05:47:30;9.00;99.90
36498;DHT22;22513;51.222;6.480;2022-12-20T05:49:59;9.10;99.90
36498;DHT22;22513;51.222;6.480;2022-12-20T05:52:25;9.10;99.90
36498;DHT22;22513;51.222;6.480;2022-12-20T05:54:51;9.10;99.90
36498;DHT22;22513;51.222;6.480;2022-12-20T05:57:17;9.10;99.90
36498;DHT22;22513;51.222;6.480;2022-12-20T05:59:42;9.10;99.90
36498;DHT22;22513;51.222;6.480;2022-12-20T06:02:08;9.20;99.90
36498;DHT22;22513;51.222;6.480;2022-12-20T06:04:35;9.20;99.90
36498;DHT22;22513;51.222;6.480;2022-12-20T06:07:01;9.20;99.90
36498;DHT22;22513;51.222;6.480;2022-12-20T06:09:26;9.20;99.90
36498;DHT22;22513;51.222;6.480;2022-12-20T06:11:52;9.20;99.90
36498;DHT22;22513;51.222;6.480;2022-12-20T06:14:18;9.20;99.90
36498;DHT22;22513;51.222;6.480;2022-12-20T06:16:43;9.20;99.90
36498;DHT22;22513;51.222;6.480;2022-12-20T06:19:09;9.30;99.90
36498;DHT22;22513;51.222;6.480;2022-12-20T06:21:35;9.30;99.90
36498;DHT22;22513;51.222;6.480;2022-12-20T06:24:00;9.30;99.90
36498;DHT22;22513;51.222;6.480;2022-12-20T06:26:26;9.30;99.90
36498;DHT22;22513;51.222;6.480;2022-12-20T06:28:52;9.30;99.90
36498;DHT22;22513;51.222;6.480;2022-12-20T06:31:19;9.30;99.90
36498;DHT22;22513;51.222;6.480;2022-12-20T06:33:44;9.30;99.90
36498;DHT22;22513;51.222;6.480;2022-12-20T06:36:10;9.30;99.90
36498;DHT22;22513;51.222;6.480;2022-12-20T06:38:36;9.30;99.90
36498;DHT22;22513;51.222;6.480;2022-12-20T06:41:27;9.40;99.90
36498;DHT22;22513;51.222;6.480;2022-12-20T06:43:53;9.40;99.90
36498;DHT22;22513;51.222;6.480;2022-12-20T06:46:19;9.40;99.90
36498;DHT22;22513;51.222;6.480;2022-12-20T06:48:47;9.40;99.90
36498;DHT22;22513;51.222;6.480;2022-12-20T06:51:13;9.40;99.90
36498;DHT22;22513;51.222;6.480;2022-12-20T06:53:38;9.40;99.90
36498;DHT22;22513;51.222;6.480;2022-12-20T06:56:05;9.40;99.90
36498;DHT22;22513;51.222;6.480;2022-12-20T06:58:30;9.40;99.90
36498;DHT22;22513;51.222;6.480;2022-12-20T07:00:56;9.40;99.90
36498;DHT22;22513;51.222;6.480;2022-12-20T07:03:22;9.40;99.90
36498;DHT22;22513;51.222;6.480;2022-12-20T07:05:51;9.40;99.90
36498;DHT22;22513;51.222;6.480;2022-12-20T07:08:18;9.40;99.90
36498;DHT22;22513;51.222;6.480;2022-12-20T07:10:44;9.40;99.90
36498;DHT22;22513;51.222;6.480;2022-12-20T07:13:10;9.40;99.90
36498;DHT22;22513;51.222;6.480;2022-12-20T07:15:35;9.40;99.90
36498;DHT22;22513;51.222;6.480;2022-12-20T07:18:04;9.40;99.90
36498;DHT22;22513;51.222;6.480;2022-12-20T07:20:30;9.50;99.90
36498;DHT22;22513;51.222;6.480;2022-12-20T07:22:56;9.50;99.90
36498;DHT22;22513;51.222;6.480;2022-12-20T07:25:23;9.50;99.90
36498;DHT22;22513;51.222;6.480;2022-12-20T07:27:50;9.40;99.90
36498;DHT22;22513;51.222;6.480;2022-12-20T07:30:19;9.40;99.90
36498;DHT22;22513;51.222;6.480;2022-12-20T07:32:46;9.40;99.90
36498;DHT22;22513;51.222;6.480;2022-12-20T07:35:12;9.30;99.90
36498;DHT22;22513;51.222;6.480;2022-12-20T07:37:38;9.30;99.90
36498;DHT22;22513;51.222;6.480;2022-12-20T07:40:04;9.30;99.90
36498;DHT22;22513;51.222;6.480;2022-12-20T07:42:31;9.30;99.90
36498;DHT22;22513;51.222;6.480;2022-12-20T07:44:56;9.30;99.90
36498;DHT22;22513;51.222;6.480;2022-12-20T07:47:22;9.30;99.90
36498;DHT22;22513;51.222;6.480;2022-12-20T07:49:50;9.30;99.90
36498;DHT22;22513;51.222;6.480;2022-12-20T07:52:19;9.40;99.90
36498;DHT22;22513;51.222;6.480;2022-12-20T07:54:49;9.40;99.90
36498;DHT22;22513;51.222;6.480;2022-12-20T07:57:21;9.50;99.90
36498;DHT22;22513;51.222;6.480;2022-12-20T07:59:50;9.50;99.90
36498;DHT22;22513;51.222;6.480;2022-12-20T08:02:21;9.60;99.90
36498;DHT22;22513;51.222;6.480;2022-12-20T08:04:48;9.60;99.90
36498;DHT22;22513;51.222;6.480;2022-12-20T08:07:15;9.60;99.90
36498;DHT22;22513;51.222;6.480;2022-12-20T08:09:43;9.70;99.90
36498;DHT22;22513;51.222;6.480;2022-12-20T08:12:12;9.70;99.90
36498;DHT22;22513;51.222;6.480;2022-12-20T08:14:40;9.80;99.90
36498;DHT22;22513;51.222;6.480;2022-12-20T08:17:06;9.80;99.90
36498;DHT22;22513;51.222;6.480;2022-12-20T08:19:31;9.90;99.90
36498;DHT22;22513;51.222;6.480;2022-12-20T08:21:59;9.90;99.90
36498;DHT22;22513;51.222;6.480;2022-12-20T08:24:25;10.00;99.90
36498;DHT22;22513;51.222;6.480;2022-12-20T08:26:50;10.00;99.90
36498;DHT22;22513;51.222;6.480;2022-12-20T08:29:16;10.10;99.90
36498;DHT22;22513;51.222;6.480;2022-12-20T08:31:42;10.10;99.90
36498;DHT22;22513;51.222;6.480;2022-12-20T08:34:08;10.20;99.90
36498;DHT22;22513;51.222;6.480;2022-12-20T08:36:35;10.20;99.90
36498;DHT22;22513;51.222;6.480;2022-12-20T08:39:05;10.30;99.90
36498;DHT22;22513;51.222;6.480;2022-12-20T08:41:32;10.30;99.90
36498;DHT22;22513;51.222;6.480;2022-12-20T08:43:58;10.30;99.90
36498;DHT22;22513;51.222;6.480;2022-12-20T08:46:24;10.40;99.90
36498;DHT22;22513;51.222;6.480;2022-12-20T08:48:49;10.40;99.90
36498;DHT22;22513;51.222;6.480;2022-12-20T08:51:15;10.40;99.90
36498;DHT22;22513;51.222;6.480;2022-12-20T08:53:43;10.40;99.90
36498;DHT22;22513;51.222;6.480;2022-12-20T08:56:14;10.40;99.90
36498;DHT22;22513;51.222;6.480;2022-12-20T08:58:42;10.50;99.90
36498;DHT22;22513;51.222;6.480;2022-12-20T09:01:11;10.50;99.90
36498;DHT22;22513;51.222;6.480;2022-12-20T09:03:38;10.50;99.90
36498;DHT22;22513;51.222;6.480;2022-12-20T09:06:07;10.50;99.90
36498;DHT22;22513;51.222;6.480;2022-12-20T09:08:40;10.50;99.90
36498;DHT22;22513;51.222;6.480;2022-12-20T09:11:22;10.50;99.90
36498;DHT22;22513;51.222;6.480;2022-12-20T09:13:53;10.50;99.90
36498;DHT22;22513;51.222;6.480;2022-12-20T09:16:22;10.60;99.90
36498;DHT22;22513;51.222;6.480;2022-12-20T09:18:49;10.60;99.90
36498;DHT22;22513;51.222;6.480;2022-12-20T09:21:15;10.70;99.90
36498;DHT22;22513;51.222;6.480;2022-12-20T09:23:40;10.60;99.90
36498;DHT22;22513;51.222;6.480;2022-12-20T09:26:09;10.70;99.90
36498;DHT22;22513;51.222;6.480;2022-12-20T09:28:36;10.70;99.90
36498;DHT22;22513;51.222;6.480;2022-12-20T09:31:05;10.70;99.90
36498;DHT22;22513;51.222;6.480;2022-12-20T09:33:32;10.70;99.90
36498;DHT22;22513;51.222;6.480;2022-12-20T09:35:58;10.70;99.90
36498;DHT22;22513;51.222;6.480;2022-12-20T09:38:24;10.70;99.90
36498;DHT22;22513;51.222;6.480;2022-12-20T09:40:52;10.70;99.90
36498;DHT22;22513;51.222;6.480;2022-12-20T09:43:23;10.70;99.90
36498;DHT22;22513;51.222;6.480;2022-12-20T09:45:53;10.70;99.90
36498;DHT22;22513;51.222;6.480;2022-12-20T09:48:29;10.70;99.90
36498;DHT22;22513;51.222;6.480;2022-12-20T09:51:21;10.60;99.90
36498;DHT22;22513;51.222;6.480;2022-12-20T09:59:18;10.60;99.90
36498;DHT22;22513;51.222;6.480;2022-12-20T10:01:48;10.60;99.90
36498;DHT22;22513;51.222;6.480;2022-12-20T10:07:09;10.70;99.90
36498;DHT22;22513;51.222;6.480;2022-12-20T10:15:28;10.80;99.90
36498;DHT22;22513;51.222;6.480;2022-12-20T10:21:07;10.80;99.90
36498;DHT22;22513;51.222;6.480;2022-12-20T10:26:22;10.90;99.90
36498;DHT22;22513;51.222;6.480;2022-12-20T10:28:48;11.00;99.90
36498;DHT22;22513;51.222;6.480;2022-12-20T10:31:16;11.10;99.90
36498;DHT22;22513;51.222;6.480;2022-12-20T10:33:43;11.20;99.90
36498;DHT22;22513;51.222;6.480;2022-12-20T10:36:22;11.30;99.90
36498;DHT22;22513;51.222;6.480;2022-12-20T10:38:50;11.40;99.90
36498;DHT22;22513;51.222;6.480;2022-12-20T10:41:19;11.50;99.90
36498;DHT22;22513;51.222;6.480;2022-12-20T10:43:48;11.60;99.90
36498;DHT22;22513;51.222;6.480;2022-12-20T10:46:16;11.70;99.90
36498;DHT22;22513;51.222;6.480;2022-12-20T10:48:43;11.80;99.90
36498;DHT22;22513;51.222;6.480;2022-12-20T10:53:36;12.00;99.90
36498;DHT22;22513;51.222;6.480;2022-12-20T10:56:34;12.10;99.90
36498;DHT22;22513;51.222;6.480;2022-12-20T11:01:47;12.20;99.90
36498;DHT22;22513;51.222;6.480;2022-12-20T11:04:31;12.30;99.90
36498;DHT22;22513;51.222;6.480;2022-12-20T11:06:59;12.40;99.90
36498;DHT22;22513;51.222;6.480;2022-12-20T11:09:35;12.50;99.90
36498;DHT22;22513;51.222;6.480;2022-12-20T11:12:14;12.50;99.90
36498;DHT22;22513;51.222;6.480;2022-12-20T11:14:42;12.60;99.90
36498;DHT22;22513;51.222;6.480;2022-12-20T11:17:24;12.70;99.90
36498;DHT22;22513;51.222;6.480;2022-12-20T11:20:13;12.80;99.90
36498;DHT22;22513;51.222;6.480;2022-12-20T11:34:02;13.10;99.90
36498;DHT22;22513;51.222;6.480;2022-12-20T11:42:46;13.30;99.90
36498;DHT22;22513;51.222;6.480;2022-12-20T11:56:37;13.50;99.90
36498;DHT22;22513;51.222;6.480;2022-12-20T11:59:04;13.60;99.90
36498;DHT22;22513;51.222;6.480;2022-12-20T12:01:36;13.60;99.90
36498;DHT22;22513;51.222;6.480;2022-12-20T12:04:25;13.60;99.90
36498;DHT22;22513;51.222;6.480;2022-12-20T12:07:00;13.70;99.90
36498;DHT22;22513;51.222;6.480;2022-12-20T12:09:36;13.60;99.90
36498;DHT22;22513;51.222;6.480;2022-12-20T12:15:51;13.70;99.90
36498;DHT22;22513;51.222;6.480;2022-12-20T12:23:36;13.70;99.90
36498;DHT22;22513;51.222;6.480;2022-12-20T12:26:19;13.50;99.90
36498;DHT22;22513;51.222;6.480;2022-12-20T12:29:05;13.20;99.90
36498;DHT22;22513;51.222;6.480;2022-12-20T12:31:36;13.00;99.90
36498;DHT22;22513;51.222;6.480;2022-12-20T12:45:01;12.30;99.90
36498;DHT22;22513;51.222;6.480;2022-12-20T12:47:51;12.20;99.90
36498;DHT22;22513;51.222;6.480;2022-12-20T12:50:25;12.20;99.90
36498;DHT22;22513;51.222;6.480;2022-12-20T12:52:57;12.20;99.90
36498;DHT22;22513;51.222;6.480;2022-12-20T12:55:42;12.10;99.90
36498;DHT22;22513;51.222;6.480;2022-12-20T13:11:38;11.90;99.90
36498;DHT22;22513;51.222;6.480;2022-12-20T13:16:43;11.80;99.90
36498;DHT22;22513;51.222;6.480;2022-12-20T13:38:04;11.70;99.90
36498;DHT22;22513;51.222;6.480;2022-12-20T13:40:59;11.70;99.90
36498;DHT22;22513;51.222;6.480;2022-12-20T13:43:34;11.60;99.90
36498;DHT22;22513;51.222;6.480;2022-12-20T13:46:04;11.50;99.90
36498;DHT22;22513;51.222;6.480;2022-12-20T13:51:23;11.50;99.90
36498;DHT22;22513;51.222;6.480;2022-12-20T13:54:03;11.50;99.90
36498;DHT22;22513;51.222;6.480;2022-12-20T13:59:21;11.40;99.90
36498;DHT22;22513;51.222;6.480;2022-12-20T14:01:51;11.40;99.90
36498;DHT22;22513;51.222;6.480;2022-12-20T14:04:18;11.40;99.90
36498;DHT22;22513;51.222;6.480;2022-12-20T14:06:51;11.40;99.90
36498;DHT22;22513;51.222;6.480;2022-12-20T14:09:33;11.40;99.90
36498;DHT22;22513;51.222;6.480;2022-12-20T14:12:16;11.30;99.90
36498;DHT22;22513;51.222;6.480;2022-12-20T14:14:47;11.30;99.90
36498;DHT22;22513;51.222;6.480;2022-12-20T14:17:20;11.30;99.90
36498;DHT22;22513;51.222;6.480;2022-12-20T14:19:47;11.30;99.90
36498;DHT22;22513;51.222;6.480;2022-12-20T14:22:13;11.30;99.90
36498;DHT22;22513;51.222;6.480;2022-12-20T14:24:40;11.30;99.90
36498;DHT22;22513;51.222;6.480;2022-12-20T14:27:11;11.40;99.90
36498;DHT22;22513;51.222;6.480;2022-12-20T14:29:39;11.40;99.90
36498;DHT22;22513;51.222;6.480;2022-12-20T14:32:15;11.40;99.90
36498;DHT22;22513;51.222;6.480;2022-12-20T14:34:42;11.40;99.90
36498;DHT22;22513;51.222;6.480;2022-12-20T14:37:37;11.40;99.90
36498;DHT22;22513;51.222;6.480;2022-12-20T14:40:16;11.40;99.90
36498;DHT22;22513;51.222;6.480;2022-12-20T14:42:42;11.40;99.90
36498;DHT22;22513;51.222;6.480;2022-12-20T14:47:36;11.40;99.90
36498;DHT22;22513;51.222;6.480;2022-12-20T14:50:17;11.40;99.90
36498;DHT22;22513;51.222;6.480;2022-12-20T14:52:43;11.40;99.90
36498;DHT22;22513;51.222;6.480;2022-12-20T14:57:44;11.40;99.90
36498;DHT22;22513;51.222;6.480;2022-12-20T15:10:54;11.30;99.90
36498;DHT22;22513;51.222;6.480;2022-12-20T15:13:24;11.30;99.90
36498;DHT22;22513;51.222;6.480;2022-12-20T15:15:50;11.30;99.90
36498;DHT22;22513;51.222;6.480;2022-12-20T15:18:18;11.30;99.90
36498;DHT22;22513;51.222;6.480;2022-12-20T15:20:45;11.30;99.90
36498;DHT22;22513;51.222;6.480;2022-12-20T15:25:42;11.20;99.90
36498;DHT22;22513;51.222;6.480;2022-12-20T15:28:15;11.20;99.90
36498;DHT22;22513;51.222;6.480;2022-12-20T15:30:41;11.20;99.90
36498;DHT22;22513;51.222;6.480;2022-12-20T15:33:23;11.10;99.90
36498;DHT22;22513;51.222;6.480;2022-12-20T15:35:50;11.10;99.90
36498;DHT22;22513;51.222;6.480;2022-12-20T15:38:22;11.10;99.90
36498;DHT22;22513;51.222;6.480;2022-12-20T15:40:52;11.10;99.90
36498;DHT22;22513;51.222;6.480;2022-12-20T15:43:19;11.00;99.90
36498;DHT22;22513;51.222;6.480;2022-12-20T15:45:48;11.00;99.90
36498;DHT22;22513;51.222;6.480;2022-12-20T15:48:22;11.00;99.90
36498;DHT22;22513;51.222;6.480;2022-12-20T15:50:58;11.00;99.90
36498;DHT22;22513;51.222;6.480;2022-12-20T15:53:27;11.00;99.90
36498;DHT22;22513;51.222;6.480;2022-12-20T15:55:54;11.00;99.90
36498;DHT22;22513;51.222;6.480;2022-12-20T15:58:24;11.00;99.90
36498;DHT22;22513;51.222;6.480;2022-12-20T16:00:52;11.00;99.90
36498;DHT22;22513;51.222;6.480;2022-12-20T16:03:23;11.00;99.90
36498;DHT22;22513;51.222;6.480;2022-12-20T16:05:51;11.00;99.90
36498;DHT22;22513;51.222;6.480;2022-12-20T16:08:17;11.00;99.90
36498;DHT22;22513;51.222;6.480;2022-12-20T16:10:47;11.10;99.90
36498;DHT22;22513;51.222;6.480;2022-12-20T16:13:15;11.10;99.90
36498;DHT22;22513;51.222;6.480;2022-12-20T16:15:41;11.10;99.90
36498;DHT22;22513;51.222;6.480;2022-12-20T16:18:07;11.10;99.90
36498;DHT22;22513;51.222;6.480;2022-12-20T16:20:33;11.00;99.90
36498;DHT22;22513;51.222;6.480;2022-12-20T16:23:00;11.10;99.90
36498;DHT22;22513;51.222;6.480;2022-12-20T16:25:32;11.00;99.90
36498;DHT22;22513;51.222;6.480;2022-12-20T16:27:57;11.00;99.90
36498;DHT22;22513;51.222;6.480;2022-12-20T16:30:24;11.00;99.90
36498;DHT22;22513;51.222;6.480;2022-12-20T16:32:51;11.00;99.90
36498;DHT22;22513;51.222;6.480;2022-12-20T16:37:48;10.90;99.90
36498;DHT22;22513;51.222;6.480;2022-12-20T16:40:14;10.90;99.90
36498;DHT22;22513;51.222;6.480;2022-12-20T16:42:40;10.90;99.90
36498;DHT22;22513;51.222;6.480;2022-12-20T16:45:10;10.90;99.90
36498;DHT22;22513;51.222;6.480;2022-12-20T16:47:37;10.80;99.90
36498;DHT22;22513;51.222;6.480;2022-12-20T16:50:05;10.80;99.90
36498;DHT22;22513;51.222;6.480;2022-12-20T16:52:32;10.80;99.90
36498;DHT22;22513;51.222;6.480;2022-12-20T16:55:02;10.80;99.90
36498;DHT22;22513;51.222;6.480;2022-12-20T16:57:28;10.80;99.90
36498;DHT22;22513;51.222;6.480;2022-12-20T16:59:53;10.70;99.90
36498;DHT22;22513;51.222;6.480;2022-12-20T17:02:26;10.70;99.90
36498;DHT22;22513;51.222;6.480;2022-12-20T17:04:52;10.70;99.90
36498;DHT22;22513;51.222;6.480;2022-12-20T17:07:17;10.70;99.90
36498;DHT22;22513;51.222;6.480;2022-12-20T17:09:43;10.70;99.90
36498;DHT22;22513;51.222;6.480;2022-12-20T17:12:17;10.70;99.90
36498;DHT22;22513;51.222;6.480;2022-12-20T17:14:43;10.60;99.90
36498;DHT22;22513;51.222;6.480;2022-12-20T17:17:09;10.60;99.90
36498;DHT22;22513;51.222;6.480;2022-12-20T17:19:35;10.60;99.90
36498;DHT22;22513;51.222;6.480;2022-12-20T17:22:01;10.60;99.90
36498;DHT22;22513;51.222;6.480;2022-12-20T17:24:27;10.60;99.90
36498;DHT22;22513;51.222;6.480;2022-12-20T17:26:53;10.60;99.90
36498;DHT22;22513;51.222;6.480;2022-12-20T17:29:19;10.50;99.90
36498;DHT22;22513;51.222;6.480;2022-12-20T17:31:45;10.50;99.90
36498;DHT22;22513;51.222;6.480;2022-12-20T17:34:16;10.60;99.90
36498;DHT22;22513;51.222;6.480;2022-12-20T17:36:45;10.50;99.90
36498;DHT22;22513;51.222;6.480;2022-12-20T17:39:11;10.60;99.90
36498;DHT22;22513;51.222;6.480;2022-12-20T17:41:37;10.60;99.90
36498;DHT22;22513;51.222;6.480;2022-12-20T17:44:04;10.60;99.90
36498;DHT22;22513;51.222;6.480;2022-12-20T17:46:31;10.60;99.90
36498;DHT22;22513;51.222;6.480;2022-12-20T17:48:57;10.70;99.90
36498;DHT22;22513;51.222;6.480;2022-12-20T17:51:25;10.70;99.90
36498;DHT22;22513;51.222;6.480;2022-12-20T17:53:53;10.80;99.90
36498;DHT22;22513;51.222;6.480;2022-12-20T17:56:23;10.80;99.90
36498;DHT22;22513;51.222;6.480;2022-12-20T17:58:49;10.80;99.90
36498;DHT22;22513;51.222;6.480;2022-12-20T18:03:54;10.80;99.90
36498;DHT22;22513;51.222;6.480;2022-12-20T18:06:21;10.80;99.90
36498;DHT22;22513;51.222;6.480;2022-12-20T18:08:54;10.80;99.90
36498;DHT22;22513;51.222;6.480;2022-12-20T18:11:21;10.80;99.90
36498;DHT22;22513;51.222;6.480;2022-12-20T18:13:51;10.80;99.90
36498;DHT22;22513;51.222;6.480;2022-12-20T18:16:23;10.80;99.90
36498;DHT22;22513;51.222;6.480;2022-12-20T18:18:49;10.70;99.90